Aérodrome :







RETROUVEZ-NOUS SUR...

 
LOGIN :

S'inscrire | Disclaimer

   EN    FR    IT 

 









Légende :    VFR   VFR Marginal   IFR   IFR Intensif   IFR Très Intensif
Visi : 
Plafond : 
>= 8 km
>= 3000ft
5 à 8 km
1000 à 3000 ft
1500m à 5 km
500 à 1000 ft
800 à 1500m
200 à 500 ft
< 800m
< 200 ft
Symboles :   Orages  Brouillard  Fortes neiges  Fortes précipitations  Vent > 20 kt






- Altitude de l'aérodrome : 270 ft
- Code IATA : YMX


CYMX - Montreal International Mirabel

DERNIER METAR :
  • 242100Z 22008KT 45SM BKN240 07/M01 A2985 RMK CI5 SLP113

METARs EXPIRÉS :
  • 242000Z 24006G15KT 45SM BKN250 07/M01 A2983 RMK CI5 SLP108
  • 241900Z 25009KT 45SM FEW180 BKN250 07/M01 A2984 RMK AC2CI4 SLP109

TAF TAF CYMX
Valide du 24 à 18h jusqu'au 25 à 18h UTC


241738Z 2418/2518 24012KT P6SM SKC
FM250100 VRB03KT P6SM FEW030 SCT200
FM250900 01005KT P6SM FEW040 BKN120
BECMG 2514/2516 04005KT RMK NXT FCST BY 250000Z



MET'MAP, la Météo Aéronautique d'un coup d'oeil ! - Copyright ORBIFLY Décembre 2007 - Disclaimer

ORBIFLY MET'MAP TEAM :

Programmation & Développement : Alexandra Zaïnal
Sur une idée originale de : Baudouin d'Aumeries
Assistance à la programmation : Marc-Olivier Méhu
Soutien technique & logistique : Manuel Goepfert

Contact : metmap@orbifly.com




SOURCES & CREDITS :

   NOAA